Sandra Hugh — WDD9019 — position and weather

sailwx.info

Track history (hours):
 
Tides and Currents Weather Stations Pressure Air Temp Water Temp Dewpoint Dewpoint Depression Visibility Wind Speed Wind Dir Waves Ship Positions

Sandra Hugh

Owner: Sortwell Inc., DBA AmNav Maritime Services, Oakland, CA. More information available from US FCC via Universal Licensing System and Coast Guard Vessel Documentation Center.

Last reported at 2017-May-25 07:17 UTC. Time now 2017-May-25 23:44 UTC.
Position N 38°02' W 122°08'.

Length 24 m; draft 4.9 m.

Type: Tug. MMSI: 367305920.

Date/timePositionNaut miles runAvg speedWind from/ knotsBaromVisibWave heightAir tempDewpointWater temp
2017-May-25 07:17N 38°02' W 122°08'0 0.0
2017-May-24 07:44N 38°03' W 122°08'1 2.3
2017-May-24 07:29N 38°02' W 122°07'0 0.1
2017-May-24 07:00N 38°02' W 122°07'0 0.0
2017-May-23 17:32N 38°02' W 122°08'0 3.2
2017-May-23 17:30N 38°02' W 122°08'0 0.0
2017-May-23 08:02N 38°03' W 122°08'0 0.0
2017-May-23 07:59N 38°03' W 122°08'0 0.0
2017-May-23 07:24N 38°03' W 122°08'0 0.0
2017-May-23 05:47N 38°03' W 122°08'1 2.2
2017-May-23 05:30N 38°02' W 122°07'0 0.0
2017-May-23 05:00N 38°02' W 122°07'0 0.5
2017-May-23 04:24N 38°02' W 122°08'1 2.7
2017-May-23 04:00N 38°02' W 122°09'4 8.1
2017-May-23 03:30N 38°04' W 122°13'510.1
2017-May-23 03:00N 38°03' W 122°20'510.2
2017-May-23 02:30N 38°00' W 122°25'611.1
2017-May-23 02:00N 37°55' W 122°27'510.9
2017-May-23 01:30N 37°50' W 122°24'4 8.6
2017-May-23 01:00N 37°46' W 122°22'3 6.5
2017-May-23 00:31N 37°43' W 122°20'0 0.2
2017-May-23 00:00N 37°43' W 122°20'5 9.2
2017-May-22 23:31N 37°48' W 122°21'2 4.7
2017-May-22 23:00N 37°49' W 122°19'0 0.0
2017-May-22 22:31N 37°49' W 122°19'0 0.0
2017-May-22 22:00N 37°49' W 122°19'0 0.0
2017-May-22 21:30N 37°49' W 122°19'0 0.0
2017-May-22 21:01N 37°49' W 122°19'0 0.0
2017-May-22 20:31N 37°49' W 122°19'0 0.0
2017-May-22 20:00N 37°49' W 122°19'0 0.0
2017-May-22 19:30N 37°49' W 122°19'0 0.0
2017-May-22 19:01N 37°49' W 122°19'0 0.0
2017-May-22 18:30N 37°49' W 122°19'0 0.0
2017-May-22 18:00N 37°49' W 122°19'0 0.6
2017-May-22 17:30N 37°49' W 122°19'2 3.5
2017-May-22 17:00N 37°48' W 122°18'0 0.4
2017-May-22 16:30N 37°48' W 122°18'3 5.5
2017-May-22 16:00N 37°48' W 122°21'1 1.5
2017-May-22 15:31N 37°48' W 122°21'0 0.0
2017-May-22 15:01N 37°48' W 122°21'0 0.0
2017-May-22 14:01N 37°48' W 122°21'0 0.1
2017-May-22 13:30N 37°48' W 122°21'0 0.0
2017-May-22 13:00N 37°48' W 122°21'1 2.9
2017-May-22 12:31N 37°48' W 122°19'0 0.7
2017-May-22 12:00N 37°48' W 122°19'0 0.7
2017-May-22 11:31N 37°48' W 122°20'2 4.9
2017-May-22 11:01N 37°48' W 122°23'3 6.5
2017-May-22 10:30N 37°49' W 122°19'0 0.2
2017-May-22 10:00N 37°49' W 122°19'0 0.0
2017-May-22 09:31N 37°49' W 122°19'0 0.0
2017-May-22 09:01N 37°49' W 122°19'0 0.0
2017-May-22 08:30N 37°49' W 122°19'0 0.0
2017-May-22 08:01N 37°49' W 122°19'0 0.0
2017-May-22 07:31N 37°49' W 122°19'0 0.0
2017-May-22 07:01N 37°49' W 122°19'0 0.0
2017-May-22 06:30N 37°49' W 122°19'0 0.0
2017-May-22 06:00N 37°49' W 122°19'0 0.0
2017-May-22 05:30N 37°49' W 122°19'0 0.0
2017-May-22 05:00N 37°49' W 122°19'0 0.0
2017-May-22 04:31N 37°49' W 122°19'0 0.0
2017-May-22 04:01N 37°49' W 122°19'0 0.0
2017-May-22 03:30N 37°49' W 122°19'0 0.0
2017-May-22 03:00N 37°49' W 122°19'0 0.0
2017-May-22 02:30N 37°49' W 122°19'0 0.0
2017-May-22 02:00N 37°49' W 122°19'0 0.0
2017-May-22 01:30N 37°49' W 122°19'0 0.0
2017-May-22 01:00N 37°49' W 122°19'0 0.0
2017-May-22 00:30N 37°49' W 122°19'0 0.0
2017-May-22 00:01N 37°49' W 122°19'0 0.0
2017-May-21 23:30N 37°49' W 122°19'0 0.0
2017-May-21 23:00N 37°49' W 122°19'0 0.0
2017-May-21 22:30N 37°49' W 122°19'0 0.0
2017-May-21 22:00N 37°49' W 122°19'0 0.0
2017-May-21 21:31N 37°49' W 122°19'0 0.0
2017-May-21 21:00N 37°49' W 122°19'0 0.0
2017-May-21 20:30N 37°49' W 122°19'0 0.0
2017-May-21 20:01N 37°49' W 122°19'0 0.0
2017-May-21 19:31N 37°49' W 122°19'0 0.0
2017-May-21 19:00N 37°49' W 122°19'0 0.0
2017-May-21 18:30N 37°49' W 122°19'0 0.0
2017-May-21 18:01N 37°49' W 122°19'0 0.0
2017-May-21 17:30N 37°49' W 122°19'0 0.0
2017-May-21 17:00N 37°49' W 122°19'0 0.0
2017-May-21 16:30N 37°49' W 122°19'0 0.0
2017-May-21 16:00N 37°49' W 122°19'0 0.0
2017-May-21 15:30N 37°49' W 122°19'0 0.0
2017-May-21 15:00N 37°49' W 122°19'0 0.0
2017-May-21 14:30N 37°49' W 122°19'0 0.0
2017-May-21 13:30N 37°49' W 122°19'0 0.0
2017-May-21 13:00N 37°49' W 122°19'0 0.0
2017-May-21 12:30N 37°49' W 122°19'0 0.0
2017-May-21 12:01N 37°49' W 122°19'0 0.0
2017-May-21 11:30N 37°49' W 122°19'0 0.0
2017-May-21 11:00N 37°49' W 122°19'2 3.4
2017-May-21 10:30N 37°48' W 122°19'1 1.9
2017-May-21 10:01N 37°48' W 122°17'1 2.1
2017-May-21 09:31N 37°48' W 122°19'0 0.0
2017-May-21 09:00N 37°48' W 122°19'0 0.5
2017-May-21 08:30N 37°48' W 122°18'2 3.4
2017-May-21 08:00N 37°49' W 122°20'2 4.2
2017-May-21 07:31N 37°49' W 122°23'5 9.5
2017-May-21 07:01N 37°49' W 122°29'1 2.1
2017-May-21 06:30N 37°48' W 122°29'2 3.8
2017-May-21 06:00N 37°49' W 122°28'3 6.9
2017-May-21 05:30N 37°52' W 122°25'3 5.4
2017-May-21 05:00N 37°55' W 122°26'1 1.6
2017-May-21 04:30N 37°55' W 122°26'1 0.8
2017-May-21 03:39N 37°55' W 122°25'0 0.4
2017-May-21 03:30N 37°55' W 122°25'4 7.8
2017-May-21 03:01N 37°52' W 122°24'4 8.3
2017-May-21 02:31N 37°49' W 122°20'1 2.0
2017-May-21 02:00N 37°49' W 122°19'0 0.0
2017-May-21 01:30N 37°49' W 122°19'0 0.0
2017-May-21 01:01N 37°49' W 122°19'0 0.0
2017-May-21 00:30N 37°49' W 122°19'0 0.0
2017-May-21 00:00N 37°49' W 122°19'0 0.0
2017-May-20 23:31N 37°49' W 122°19'0 0.0
2017-May-20 23:00N 37°49' W 122°19'0 0.0
2017-May-20 22:30N 37°49' W 122°19'0 0.0
2017-May-20 22:01N 37°49' W 122°19'0 0.0
2017-May-20 21:30N 37°49' W 122°19'0 0.0
2017-May-20 21:00N 37°49' W 122°19'0 0.0
2017-May-20 20:30N 37°49' W 122°19'0 0.0
2017-May-20 20:00N 37°49' W 122°19'0 0.0
2017-May-20 19:30N 37°49' W 122°19'0 0.0
2017-May-20 19:01N 37°49' W 122°19'0 0.0
2017-May-20 18:30N 37°49' W 122°19'0 0.0
2017-May-20 18:01N 37°49' W 122°19'0 0.0
2017-May-20 17:31N 37°49' W 122°19'0 0.0
2017-May-20 17:01N 37°49' W 122°19'0 0.0
2017-May-20 16:31N 37°49' W 122°19'0 0.0
2017-May-20 16:00N 37°49' W 122°19'1 2.8
2017-May-20 15:31N 37°49' W 122°20'3 5.0
2017-May-20 15:01N 37°48' W 122°17'1 2.5
2017-May-20 14:30N 37°48' W 122°19'0 0.1
2017-May-20 13:30N 37°48' W 122°19'2 4.5
2017-May-20 13:00N 37°48' W 122°22'1 1.4
2017-May-20 12:30N 37°48' W 122°21'1 2.0
2017-May-20 12:00N 37°49' W 122°20'0 0.2
2017-May-20 11:30N 37°49' W 122°20'0 0.3
2017-May-20 11:00N 37°49' W 122°20'0 0.0
2017-May-20 10:31N 37°49' W 122°20'0 0.0
2017-May-20 10:01N 37°49' W 122°20'1 1.7
2017-May-20 09:30N 37°49' W 122°19'0 0.2
2017-May-20 09:01N 37°49' W 122°19'0 0.0
2017-May-20 08:30N 37°49' W 122°19'0 0.0
2017-May-20 08:01N 37°49' W 122°19'0 0.0
2017-May-20 07:30N 37°49' W 122°19'0 0.0
2017-May-20 07:00N 37°49' W 122°19'0 0.0
2017-May-20 06:30N 37°49' W 122°19'0 0.0
2017-May-20 06:00N 37°49' W 122°19'0 0.0
2017-May-20 05:30N 37°49' W 122°19'0 0.0
2017-May-20 05:01N 37°49' W 122°19'0 0.0
2017-May-20 04:31N 37°49' W 122°19'0 0.0
2017-May-20 04:00N 37°49' W 122°19'0 0.0
2017-May-20 03:30N 37°49' W 122°19'0 0.0
2017-May-20 03:00N 37°49' W 122°19'2 3.1
2017-May-20 02:30N 37°48' W 122°19'0 0.4
2017-May-20 02:01N 37°48' W 122°19'1 2.7
2017-May-20 01:30N 37°48' W 122°17'1 1.9
2017-May-20 01:00N 37°48' W 122°19'0 0.6
2017-May-20 00:30N 37°48' W 122°19'0 0.2
2017-May-20 00:01N 37°48' W 122°19'1 2.6
2017-May-19 23:31N 37°49' W 122°19'0 0.7
2017-May-19 23:00N 37°49' W 122°19'0 0.0
2017-May-19 22:30N 37°49' W 122°19'0 0.0
2017-May-19 22:00N 37°49' W 122°19'0 0.0
2017-May-19 21:30N 37°49' W 122°19'0 0.0
2017-May-19 21:01N 37°49' W 122°19'0 0.0
2017-May-19 20:31N 37°49' W 122°19'0 0.0
2017-May-19 20:00N 37°49' W 122°19'0 0.0
2017-May-19 19:30N 37°49' W 122°19'0 0.0
2017-May-19 19:00N 37°49' W 122°19'0 0.0
2017-May-19 18:31N 37°49' W 122°19'0 0.0
2017-May-19 18:01N 37°49' W 122°19'0 0.0
2017-May-19 17:31N 37°49' W 122°19'0 0.0
2017-May-19 17:01N 37°49' W 122°19'0 0.0
2017-May-19 16:30N 37°49' W 122°19'0 0.0
2017-May-19 16:00N 37°49' W 122°19'0 0.0
2017-May-19 15:30N 37°49' W 122°19'0 0.0
2017-May-19 15:01N 37°49' W 122°19'0 0.0
2017-May-19 14:01N 37°49' W 122°19'0 0.0
2017-May-19 13:31N 37°49' W 122°19'0 0.0
2017-May-19 13:00N 37°49' W 122°19'0 0.0
2017-May-19 12:31N 37°49' W 122°19'2 4.7
2017-May-19 12:00N 37°49' W 122°22'611.2
2017-May-19 11:30N 37°54' W 122°25'1 2.0
2017-May-19 11:00N 37°55' W 122°25'0 0.1
2017-May-19 10:30N 37°55' W 122°25'2 3.0
2017-May-19 10:00N 37°54' W 122°23'0 0.0
2017-May-19 09:30N 37°54' W 122°23'0 0.0
2017-May-19 09:00N 37°54' W 122°23'0 0.0
2017-May-19 08:30N 37°54' W 122°23'0 0.0
2017-May-19 08:00N 37°54' W 122°23'0 0.0
2017-May-19 07:31N 37°54' W 122°23'0 0.0
2017-May-19 07:01N 37°54' W 122°23'0 0.0
2017-May-19 06:30N 37°54' W 122°23'0 0.0
2017-May-19 06:00N 37°54' W 122°23'0 0.0
2017-May-19 05:30N 37°54' W 122°23'0 0.0
2017-May-19 05:00N 37°54' W 122°23'0 0.9
2017-May-19 04:30N 37°54' W 122°24'510.8
2017-May-19 04:00N 37°60' W 122°25'611.4
2017-May-19 03:31N 38°03' W 122°19'610.7
2017-May-19 02:58N 38°03' W 122°12'3 6.9
2017-May-19 02:30N 38°02' W 122°08'0 0.2
2017-May-19 01:17N 38°03' W 122°08'1 1.9
2017-May-19 01:00N 38°02' W 122°08'610.2
2017-May-19 00:28N 38°04' W 122°15'1 1.3
2017-May-19 00:00N 38°03' W 122°16'0 0.2
2017-May-18 23:30N 38°03' W 122°16'0 0.1
2017-May-18 22:59N 38°03' W 122°16'0 0.3
2017-May-18 22:30N 38°04' W 122°16'6 0.8
2017-May-18 14:37N 38°02' W 122°08'2 0.2
2017-May-18 05:03N 38°03' W 122°06'0 0.0
2017-May-18 04:55N 38°03' W 122°06'0 0.1
2017-May-18 04:26N 38°03' W 122°06'2 3.3
2017-May-18 03:57N 38°02' W 122°08'3 5.5
2017-May-18 03:20N 38°03' W 122°12'412.3
2017-May-18 03:00N 38°03' W 122°17'612.4
2017-May-18 02:30N 38°00' W 122°24'611.7
2017-May-18 01:59N 37°55' W 122°25'611.5
2017-May-18 01:30N 37°50' W 122°22'3 5.9
2017-May-18 01:00N 37°48' W 122°19'1 1.5
2017-May-18 00:30N 37°48' W 122°20'1 2.5
2017-May-18 00:00N 37°48' W 122°21'0 0.3
2017-May-17 23:30N 37°47' W 122°21'0 0.4
2017-May-17 23:00N 37°48' W 122°22'1 1.5
2017-May-17 22:30N 37°48' W 122°21'2 4.7
2017-May-17 22:00N 37°49' W 122°19'0 0.0
2017-May-17 21:30N 37°49' W 122°19'0 0.0
2017-May-17 21:00N 37°49' W 122°19'0 0.0
2017-May-17 20:30N 37°49' W 122°19'0 0.0
2017-May-17 20:00N 37°49' W 122°19'0 0.0
2017-May-17 19:30N 37°49' W 122°19'0 0.0
2017-May-17 19:00N 37°49' W 122°19'0 0.0
2017-May-17 18:30N 37°49' W 122°19'0 0.0
2017-May-17 18:00N 37°49' W 122°19'0 0.0
2017-May-17 17:30N 37°49' W 122°19'0 0.0
2017-May-17 17:00N 37°49' W 122°19'0 0.0
2017-May-17 16:31N 37°49' W 122°19'0 0.0
2017-May-17 16:00N 37°49' W 122°19'0 0.0
2017-May-17 15:30N 37°49' W 122°19'0 0.0
2017-May-17 15:00N 37°49' W 122°19'0 0.0
2017-May-17 14:30N 37°49' W 122°19'2 1.9
2017-May-17 13:30N 37°48' W 122°18'1 1.3
2017-May-17 13:00N 37°48' W 122°19'3 5.5
2017-May-17 12:30N 37°48' W 122°22'0 0.5
2017-May-17 12:00N 37°48' W 122°22'0 0.3
2017-May-17 11:30N 37°48' W 122°22'3 5.8
2017-May-17 11:00N 37°49' W 122°19'0 0.0
2017-May-17 10:30N 37°49' W 122°19'0 0.0
2017-May-17 10:00N 37°49' W 122°19'0 0.0
2017-May-17 09:30N 37°49' W 122°19'0 0.0
2017-May-17 09:00N 37°49' W 122°19'0 0.0
2017-May-17 08:30N 37°49' W 122°19'0 0.0
2017-May-17 08:00N 37°49' W 122°19'0 0.0
2017-May-17 07:30N 37°49' W 122°19'0 0.0
2017-May-17 07:00N 37°49' W 122°19'0 0.0
2017-May-17 06:30N 37°49' W 122°19'0 0.0
2017-May-17 06:00N 37°49' W 122°19'0 0.0
2017-May-17 05:30N 37°49' W 122°19'0 0.0
2017-May-17 05:00N 37°49' W 122°19'0 0.0
2017-May-17 04:30N 37°49' W 122°19'0 0.0
2017-May-17 04:00N 37°49' W 122°19'0 0.0
2017-May-17 03:30N 37°49' W 122°19'0 0.0
2017-May-17 03:00N 37°49' W 122°19'0 0.0
2017-May-17 02:30N 37°49' W 122°19'0 0.0
2017-May-17 02:00N 37°49' W 122°19'0 0.0
2017-May-17 01:30N 37°49' W 122°19'1 2.4
2017-May-17 01:00N 37°49' W 122°20'0 0.7
2017-May-17 00:30N 37°49' W 122°20'1 2.2
2017-May-17 00:01N 37°49' W 122°21'612.1
2017-May-16 23:30N 37°54' W 122°25'2 4.3
2017-May-16 23:00N 37°54' W 122°23'1 1.7
2017-May-16 22:29N 37°55' W 122°22'0 0.0
2017-May-16 22:00N 37°55' W 122°22'0 0.3
2017-May-16 21:30N 37°55' W 122°22'2 3.2
2017-May-16 21:00N 37°54' W 122°24'2 3.0
2017-May-16 20:30N 37°54' W 122°22'1 2.2
2017-May-16 20:00N 37°54' W 122°23'0 0.0
2017-May-16 19:30N 37°54' W 122°23'0 0.0
2017-May-16 19:00N 37°54' W 122°23'0 0.0
2017-May-16 18:30N 37°54' W 122°23'0 0.0
2017-May-16 18:00N 37°54' W 122°23'0 0.0
2017-May-16 17:30N 37°54' W 122°23'0 0.0
2017-May-16 17:00N 37°54' W 122°23'0 0.0
2017-May-16 16:29N 37°54' W 122°23'0 0.0
2017-May-16 16:00N 37°54' W 122°23'0 0.0
2017-May-16 15:30N 37°54' W 122°23'0 0.0
2017-May-16 15:00N 37°54' W 122°23'0 0.0
2017-May-16 14:30N 37°54' W 122°23'1 1.1
2017-May-16 13:30N 37°54' W 122°22'1 1.7
2017-May-16 13:00N 37°54' W 122°23'2 3.8
2017-May-16 12:30N 37°54' W 122°25'4 8.1
2017-May-16 12:00N 37°51' W 122°23'4 7.3
2017-May-16 11:30N 37°49' W 122°19'0 0.0
2017-May-16 11:00N 37°49' W 122°19'0 0.0
2017-May-16 10:30N 37°49' W 122°19'0 0.0
2017-May-16 10:00N 37°49' W 122°19'0 0.0
2017-May-16 09:30N 37°49' W 122°19'0 0.0
2017-May-16 09:01N 37°49' W 122°19'0 0.0
2017-May-16 08:30N 37°49' W 122°19'0 0.0
2017-May-16 08:00N 37°49' W 122°19'0 0.0
2017-May-16 07:30N 37°49' W 122°19'0 0.0
2017-May-16 07:01N 37°49' W 122°19'0 0.0
2017-May-16 06:30N 37°49' W 122°19'0 0.0
2017-May-16 06:00N 37°49' W 122°19'0 0.0
2017-May-16 05:30N 37°49' W 122°19'0 0.0
2017-May-16 05:01N 37°49' W 122°19'0 0.0
2017-May-16 04:30N 37°49' W 122°19'0 0.0
2017-May-16 04:00N 37°49' W 122°19'0 0.0
2017-May-16 03:30N 37°49' W 122°19'0 0.0
2017-May-16 03:00N 37°49' W 122°19'0 0.0
2017-May-16 02:30N 37°49' W 122°19'0 0.0
2017-May-16 02:00N 37°49' W 122°19'1 1.7
2017-May-16 01:30N 37°49' W 122°20'1 1.8
2017-May-16 01:00N 37°48' W 122°21'1 2.6
2017-May-16 00:30N 37°48' W 122°19'1 2.4
2017-May-16 00:01N 37°49' W 122°20'0 0.4
2017-May-15 23:30N 37°49' W 122°20'0 0.1
2017-May-15 23:00N 37°49' W 122°20'0 0.2
2017-May-15 22:30N 37°49' W 122°20'1 2.0
2017-May-15 22:00N 37°49' W 122°19'0 0.0
2017-May-15 21:30N 37°49' W 122°19'0 0.0
2017-May-15 21:00N 37°49' W 122°19'1 2.0
2017-May-15 20:30N 37°49' W 122°20'2 3.5
2017-May-15 20:00N 37°48' W 122°18'0 0.9
2017-May-15 19:30N 37°48' W 122°17'1 3.0
2017-May-15 19:00N 37°48' W 122°19'2 4.7
2017-May-15 18:30N 37°48' W 122°22'3 5.9
2017-May-15 18:00N 37°49' W 122°19'0 0.0
2017-May-15 17:30N 37°49' W 122°19'0 0.0
2017-May-15 17:00N 37°49' W 122°19'0 0.0
2017-May-15 16:30N 37°49' W 122°19'0 0.0
2017-May-15 16:00N 37°49' W 122°19'1 2.5
2017-May-15 15:30N 37°49' W 122°20'0 0.0
2017-May-15 15:00N 37°49' W 122°20'3 3.1
2017-May-15 14:00N 37°48' W 122°24'1 2.9
2017-May-15 13:30N 37°49' W 122°26'3 7.0
2017-May-15 13:00N 37°48' W 122°21'1 2.0
2017-May-15 12:31N 37°49' W 122°20'0 0.0
2017-May-15 12:00N 37°49' W 122°20'0 0.0
2017-May-15 11:30N 37°49' W 122°20'0 0.0
2017-May-15 11:00N 37°49' W 122°20'0 0.0
2017-May-15 10:31N 37°49' W 122°20'0 0.0
2017-May-15 10:01N 37°49' W 122°20'0 0.0
2017-May-15 09:30N 37°49' W 122°20'0 0.0
2017-May-15 09:00N 37°49' W 122°20'0 0.0
2017-May-15 08:31N 37°49' W 122°20'0 0.0
2017-May-15 08:00N 37°49' W 122°20'0 0.0
2017-May-15 07:30N 37°49' W 122°20'  
Track history (hours):
 
Tides and Currents Weather Stations Pressure Air Temp Water Temp Dewpoint Dewpoint Depression Visibility Wind Speed Wind Dir Waves Ship Positions

Sandra Hugh

Owner: Sortwell Inc., DBA AmNav Maritime Services, Oakland, CA. More information available from US FCC via Universal Licensing System and Coast Guard Vessel Documentation Center.

Last reported at 2017-May-25 07:17 UTC. Time now 2017-May-25 23:44 UTC.
Position N 38°02' W 122°08'.

Length 24 m; draft 4.9 m.

Type: Tug. MMSI: 367305920.

Date/timePositionNaut miles runAvg speedWind from/ knotsBaromVisibWave heightAir tempDewpointWater temp
2017-May-25 07:17N 38°02' W 122°08'0 0.0
2017-May-24 07:44N 38°03' W 122°08'1 2.3
2017-May-24 07:29N 38°02' W 122°07'0 0.1
2017-May-24 07:00N 38°02' W 122°07'0 0.0
2017-May-23 17:32N 38°02' W 122°08'0 3.2
2017-May-23 17:30N 38°02' W 122°08'0 0.0
2017-May-23 08:02N 38°03' W 122°08'0 0.0
2017-May-23 07:59N 38°03' W 122°08'0 0.0
2017-May-23 07:24N 38°03' W 122°08'0 0.0
2017-May-23 05:47N 38°03' W 122°08'1 2.2
2017-May-23 05:30N 38°02' W 122°07'0 0.0
2017-May-23 05:00N 38°02' W 122°07'0 0.5
2017-May-23 04:24N 38°02' W 122°08'1 2.7
2017-May-23 04:00N 38°02' W 122°09'4 8.1
2017-May-23 03:30N 38°04' W 122°13'510.1
2017-May-23 03:00N 38°03' W 122°20'510.2
2017-May-23 02:30N 38°00' W 122°25'611.1
2017-May-23 02:00N 37°55' W 122°27'510.9
2017-May-23 01:30N 37°50' W 122°24'4 8.6
2017-May-23 01:00N 37°46' W 122°22'3 6.5
2017-May-23 00:31N 37°43' W 122°20'0 0.2
2017-May-23 00:00N 37°43' W 122°20'5 9.2
2017-May-22 23:31N 37°48' W 122°21'2 4.7
2017-May-22 23:00N 37°49' W 122°19'0 0.0
2017-May-22 22:31N 37°49' W 122°19'0 0.0
2017-May-22 22:00N 37°49' W 122°19'0 0.0
2017-May-22 21:30N 37°49' W 122°19'0 0.0
2017-May-22 21:01N 37°49' W 122°19'0 0.0
2017-May-22 20:31N 37°49' W 122°19'0 0.0
2017-May-22 20:00N 37°49' W 122°19'0 0.0
2017-May-22 19:30N 37°49' W 122°19'0 0.0
2017-May-22 19:01N 37°49' W 122°19'0 0.0
2017-May-22 18:30N 37°49' W 122°19'0 0.0
2017-May-22 18:00N 37°49' W 122°19'0 0.6
2017-May-22 17:30N 37°49' W 122°19'2 3.5
2017-May-22 17:00N 37°48' W 122°18'0 0.4
2017-May-22 16:30N 37°48' W 122°18'3 5.5
2017-May-22 16:00N 37°48' W 122°21'1 1.5
2017-May-22 15:31N 37°48' W 122°21'0 0.0
2017-May-22 15:01N 37°48' W 122°21'0 0.0
2017-May-22 14:01N 37°48' W 122°21'0 0.1
2017-May-22 13:30N 37°48' W 122°21'0 0.0
2017-May-22 13:00N 37°48' W 122°21'1 2.9
2017-May-22 12:31N 37°48' W 122°19'0 0.7
2017-May-22 12:00N 37°48' W 122°19'0 0.7
2017-May-22 11:31N 37°48' W 122°20'2 4.9
2017-May-22 11:01N 37°48' W 122°23'3 6.5
2017-May-22 10:30N 37°49' W 122°19'0 0.2
2017-May-22 10:00N 37°49' W 122°19'0 0.0
2017-May-22 09:31N 37°49' W 122°19'0 0.0
2017-May-22 09:01N 37°49' W 122°19'0 0.0
2017-May-22 08:30N 37°49' W 122°19'0 0.0
2017-May-22 08:01N 37°49' W 122°19'0 0.0
2017-May-22 07:31N 37°49' W 122°19'0 0.0
2017-May-22 07:01N 37°49' W 122°19'0 0.0
2017-May-22 06:30N 37°49' W 122°19'0 0.0
2017-May-22 06:00N 37°49' W 122°19'0 0.0
2017-May-22 05:30N 37°49' W 122°19'0 0.0
2017-May-22 05:00N 37°49' W 122°19'0 0.0
2017-May-22 04:31N 37°49' W 122°19'0 0.0
2017-May-22 04:01N 37°49' W 122°19'0 0.0
2017-May-22 03:30N 37°49' W 122°19'0 0.0
2017-May-22 03:00N 37°49' W 122°19'0 0.0
2017-May-22 02:30N 37°49' W 122°19'0 0.0
2017-May-22 02:00N 37°49' W 122°19'0 0.0
2017-May-22 01:30N 37°49' W 122°19'0 0.0
2017-May-22 01:00N 37°49' W 122°19'0 0.0
2017-May-22 00:30N 37°49' W 122°19'0 0.0
2017-May-22 00:01N 37°49' W 122°19'0 0.0
2017-May-21 23:30N 37°49' W 122°19'0 0.0
2017-May-21 23:00N 37°49' W 122°19'0 0.0
2017-May-21 22:30N 37°49' W 122°19'0 0.0
2017-May-21 22:00N 37°49' W 122°19'0 0.0
2017-May-21 21:31N 37°49' W 122°19'0 0.0
2017-May-21 21:00N 37°49' W 122°19'0 0.0
2017-May-21 20:30N 37°49' W 122°19'0 0.0
2017-May-21 20:01N 37°49' W 122°19'0 0.0
2017-May-21 19:31N 37°49' W 122°19'0 0.0
2017-May-21 19:00N 37°49' W 122°19'0 0.0
2017-May-21 18:30N 37°49' W 122°19'0 0.0
2017-May-21 18:01N 37°49' W 122°19'0 0.0
2017-May-21 17:30N 37°49' W 122°19'0 0.0
2017-May-21 17:00N 37°49' W 122°19'0 0.0
2017-May-21 16:30N 37°49' W 122°19'0 0.0
2017-May-21 16:00N 37°49' W 122°19'0 0.0
2017-May-21 15:30N 37°49' W 122°19'0 0.0
2017-May-21 15:00N 37°49' W 122°19'0 0.0
2017-May-21 14:30N 37°49' W 122°19'0 0.0
2017-May-21 13:30N 37°49' W 122°19'0 0.0
2017-May-21 13:00N 37°49' W 122°19'0 0.0
2017-May-21 12:30N 37°49' W 122°19'0 0.0
2017-May-21 12:01N 37°49' W 122°19'0 0.0
2017-May-21 11:30N 37°49' W 122°19'0 0.0
2017-May-21 11:00N 37°49' W 122°19'2 3.4
2017-May-21 10:30N 37°48' W 122°19'1 1.9
2017-May-21 10:01N 37°48' W 122°17'1 2.1
2017-May-21 09:31N 37°48' W 122°19'0 0.0
2017-May-21 09:00N 37°48' W 122°19'0 0.5
2017-May-21 08:30N 37°48' W 122°18'2 3.4
2017-May-21 08:00N 37°49' W 122°20'2 4.2
2017-May-21 07:31N 37°49' W 122°23'5 9.5
2017-May-21 07:01N 37°49' W 122°29'1 2.1
2017-May-21 06:30N 37°48' W 122°29'2 3.8
2017-May-21 06:00N 37°49' W 122°28'3 6.9
2017-May-21 05:30N 37°52' W 122°25'3 5.4
2017-May-21 05:00N 37°55' W 122°26'1 1.6
2017-May-21 04:30N 37°55' W 122°26'1 0.8
2017-May-21 03:39N 37°55' W 122°25'0 0.4
2017-May-21 03:30N 37°55' W 122°25'4 7.8
2017-May-21 03:01N 37°52' W 122°24'4 8.3
2017-May-21 02:31N 37°49' W 122°20'1 2.0
2017-May-21 02:00N 37°49' W 122°19'0 0.0
2017-May-21 01:30N 37°49' W 122°19'0 0.0
2017-May-21 01:01N 37°49' W 122°19'0 0.0
2017-May-21 00:30N 37°49' W 122°19'0 0.0
2017-May-21 00:00N 37°49' W 122°19'0 0.0
2017-May-20 23:31N 37°49' W 122°19'0 0.0
2017-May-20 23:00N 37°49' W 122°19'0 0.0
2017-May-20 22:30N 37°49' W 122°19'0 0.0
2017-May-20 22:01N 37°49' W 122°19'0 0.0
2017-May-20 21:30N 37°49' W 122°19'0 0.0
2017-May-20 21:00N 37°49' W 122°19'0 0.0
2017-May-20 20:30N 37°49' W 122°19'0 0.0
2017-May-20 20:00N 37°49' W 122°19'0 0.0
2017-May-20 19:30N 37°49' W 122°19'0 0.0
2017-May-20 19:01N 37°49' W 122°19'0 0.0
2017-May-20 18:30N 37°49' W 122°19'0 0.0
2017-May-20 18:01N 37°49' W 122°19'0 0.0
2017-May-20 17:31N 37°49' W 122°19'0 0.0
2017-May-20 17:01N 37°49' W 122°19'0 0.0
2017-May-20 16:31N 37°49' W 122°19'0 0.0
2017-May-20 16:00N 37°49' W 122°19'1 2.8
2017-May-20 15:31N 37°49' W 122°20'3 5.0
2017-May-20 15:01N 37°48' W 122°17'1 2.5
2017-May-20 14:30N 37°48' W 122°19'0 0.1
2017-May-20 13:30N 37°48' W 122°19'2 4.5
2017-May-20 13:00N 37°48' W 122°22'1 1.4
2017-May-20 12:30N 37°48' W 122°21'1 2.0
2017-May-20 12:00N 37°49' W 122°20'0 0.2
2017-May-20 11:30N 37°49' W 122°20'0 0.3
2017-May-20 11:00N 37°49' W 122°20'0 0.0
2017-May-20 10:31N 37°49' W 122°20'0 0.0
2017-May-20 10:01N 37°49' W 122°20'1 1.7
2017-May-20 09:30N 37°49' W 122°19'0 0.2
2017-May-20 09:01N 37°49' W 122°19'0 0.0
2017-May-20 08:30N 37°49' W 122°19'0 0.0
2017-May-20 08:01N 37°49' W 122°19'0 0.0
2017-May-20 07:30N 37°49' W 122°19'0 0.0
2017-May-20 07:00N 37°49' W 122°19'0 0.0
2017-May-20 06:30N 37°49' W 122°19'0 0.0
2017-May-20 06:00N 37°49' W 122°19'0 0.0
2017-May-20 05:30N 37°49' W 122°19'0 0.0
2017-May-20 05:01N 37°49' W 122°19'0 0.0
2017-May-20 04:31N 37°49' W 122°19'0 0.0
2017-May-20 04:00N 37°49' W 122°19'0 0.0
2017-May-20 03:30N 37°49' W 122°19'0 0.0
2017-May-20 03:00N 37°49' W 122°19'2 3.1
2017-May-20 02:30N 37°48' W 122°19'0 0.4
2017-May-20 02:01N 37°48' W 122°19'1 2.7
2017-May-20 01:30N 37°48' W 122°17'1 1.9
2017-May-20 01:00N 37°48' W 122°19'0 0.6
2017-May-20 00:30N 37°48' W 122°19'0 0.2
2017-May-20 00:01N 37°48' W 122°19'1 2.6
2017-May-19 23:31N 37°49' W 122°19'0 0.7
2017-May-19 23:00N 37°49' W 122°19'0 0.0
2017-May-19 22:30N 37°49' W 122°19'0 0.0
2017-May-19 22:00N 37°49' W 122°19'0 0.0
2017-May-19 21:30N 37°49' W 122°19'0 0.0
2017-May-19 21:01N 37°49' W 122°19'0 0.0
2017-May-19 20:31N 37°49' W 122°19'0 0.0
2017-May-19 20:00N 37°49' W 122°19'0 0.0
2017-May-19 19:30N 37°49' W 122°19'0 0.0
2017-May-19 19:00N 37°49' W 122°19'0 0.0
2017-May-19 18:31N 37°49' W 122°19'0 0.0
2017-May-19 18:01N 37°49' W 122°19'0 0.0
2017-May-19 17:31N 37°49' W 122°19'0 0.0
2017-May-19 17:01N 37°49' W 122°19'0 0.0
2017-May-19 16:30N 37°49' W 122°19'0 0.0
2017-May-19 16:00N 37°49' W 122°19'0 0.0
2017-May-19 15:30N 37°49' W 122°19'0 0.0
2017-May-19 15:01N 37°49' W 122°19'0 0.0
2017-May-19 14:01N 37°49' W 122°19'0 0.0
2017-May-19 13:31N 37°49' W 122°19'0 0.0
2017-May-19 13:00N 37°49' W 122°19'0 0.0
2017-May-19 12:31N 37°49' W 122°19'2 4.7
2017-May-19 12:00N 37°49' W 122°22'611.2
2017-May-19 11:30N 37°54' W 122°25'1 2.0
2017-May-19 11:00N 37°55' W 122°25'0 0.1
2017-May-19 10:30N 37°55' W 122°25'2 3.0
2017-May-19 10:00N 37°54' W 122°23'0 0.0
2017-May-19 09:30N 37°54' W 122°23'0 0.0
2017-May-19 09:00N 37°54' W 122°23'0 0.0
2017-May-19 08:30N 37°54' W 122°23'0 0.0
2017-May-19 08:00N 37°54' W 122°23'0 0.0
2017-May-19 07:31N 37°54' W 122°23'0 0.0
2017-May-19 07:01N 37°54' W 122°23'0 0.0
2017-May-19 06:30N 37°54' W 122°23'0 0.0
2017-May-19 06:00N 37°54' W 122°23'0 0.0
2017-May-19 05:30N 37°54' W 122°23'0 0.0
2017-May-19 05:00N 37°54' W 122°23'0 0.9
2017-May-19 04:30N 37°54' W 122°24'510.8
2017-May-19 04:00N 37°60' W 122°25'611.4
2017-May-19 03:31N 38°03' W 122°19'610.7
2017-May-19 02:58N 38°03' W 122°12'3 6.9
2017-May-19 02:30N 38°02' W 122°08'0 0.2
2017-May-19 01:17N 38°03' W 122°08'1 1.9
2017-May-19 01:00N 38°02' W 122°08'610.2
2017-May-19 00:28N 38°04' W 122°15'1 1.3
2017-May-19 00:00N 38°03' W 122°16'0 0.2
2017-May-18 23:30N 38°03' W 122°16'0 0.1
2017-May-18 22:59N 38°03' W 122°16'0 0.3
2017-May-18 22:30N 38°04' W 122°16'6 0.8
2017-May-18 14:37N 38°02' W 122°08'2 0.2
2017-May-18 05:03N 38°03' W 122°06'0 0.0
2017-May-18 04:55N 38°03' W 122°06'0 0.1
2017-May-18 04:26N 38°03' W 122°06'2 3.3
2017-May-18 03:57N 38°02' W 122°08'3 5.5
2017-May-18 03:20N 38°03' W 122°12'412.3
2017-May-18 03:00N 38°03' W 122°17'612.4
2017-May-18 02:30N 38°00' W 122°24'611.7
2017-May-18 01:59N 37°55' W 122°25'611.5
2017-May-18 01:30N 37°50' W 122°22'3 5.9
2017-May-18 01:00N 37°48' W 122°19'1 1.5
2017-May-18 00:30N 37°48' W 122°20'1 2.5
2017-May-18 00:00N 37°48' W 122°21'0 0.3
2017-May-17 23:30N 37°47' W 122°21'0 0.4
2017-May-17 23:00N 37°48' W 122°22'1 1.5
2017-May-17 22:30N 37°48' W 122°21'2 4.7
2017-May-17 22:00N 37°49' W 122°19'0 0.0
2017-May-17 21:30N 37°49' W 122°19'0 0.0
2017-May-17 21:00N 37°49' W 122°19'0 0.0
2017-May-17 20:30N 37°49' W 122°19'0 0.0
2017-May-17 20:00N 37°49' W 122°19'0 0.0
2017-May-17 19:30N 37°49' W 122°19'0 0.0
2017-May-17 19:00N 37°49' W 122°19'0 0.0
2017-May-17 18:30N 37°49' W 122°19'0 0.0
2017-May-17 18:00N 37°49' W 122°19'0 0.0
2017-May-17 17:30N 37°49' W 122°19'0 0.0
2017-May-17 17:00N 37°49' W 122°19'0 0.0
2017-May-17 16:31N 37°49' W 122°19'0 0.0
2017-May-17 16:00N 37°49' W 122°19'0 0.0
2017-May-17 15:30N 37°49' W 122°19'0 0.0
2017-May-17 15:00N 37°49' W 122°19'0 0.0
2017-May-17 14:30N 37°49' W 122°19'2 1.9
2017-May-17 13:30N 37°48' W 122°18'1 1.3
2017-May-17 13:00N 37°48' W 122°19'3 5.5
2017-May-17 12:30N 37°48' W 122°22'0 0.5
2017-May-17 12:00N 37°48' W 122°22'0 0.3
2017-May-17 11:30N 37°48' W 122°22'3 5.8
2017-May-17 11:00N 37°49' W 122°19'0 0.0
2017-May-17 10:30N 37°49' W 122°19'0 0.0
2017-May-17 10:00N 37°49' W 122°19'0 0.0
2017-May-17 09:30N 37°49' W 122°19'0 0.0
2017-May-17 09:00N 37°49' W 122°19'0 0.0
2017-May-17 08:30N 37°49' W 122°19'0 0.0
2017-May-17 08:00N 37°49' W 122°19'0 0.0
2017-May-17 07:30N 37°49' W 122°19'0 0.0
2017-May-17 07:00N 37°49' W 122°19'0 0.0
2017-May-17 06:30N 37°49' W 122°19'0 0.0
2017-May-17 06:00N 37°49' W 122°19'0 0.0
2017-May-17 05:30N 37°49' W 122°19'0 0.0
2017-May-17 05:00N 37°49' W 122°19'0 0.0
2017-May-17 04:30N 37°49' W 122°19'0 0.0
2017-May-17 04:00N 37°49' W 122°19'0 0.0
2017-May-17 03:30N 37°49' W 122°19'0 0.0
2017-May-17 03:00N 37°49' W 122°19'0 0.0
2017-May-17 02:30N 37°49' W 122°19'0 0.0
2017-May-17 02:00N 37°49' W 122°19'0 0.0
2017-May-17 01:30N 37°49' W 122°19'1 2.4
2017-May-17 01:00N 37°49' W 122°20'0 0.7
2017-May-17 00:30N 37°49' W 122°20'1 2.2
2017-May-17 00:01N 37°49' W 122°21'612.1
2017-May-16 23:30N 37°54' W 122°25'2 4.3
2017-May-16 23:00N 37°54' W 122°23'1 1.7
2017-May-16 22:29N 37°55' W 122°22'0 0.0
2017-May-16 22:00N 37°55' W 122°22'0 0.3
2017-May-16 21:30N 37°55' W 122°22'2 3.2
2017-May-16 21:00N 37°54' W 122°24'2 3.0
2017-May-16 20:30N 37°54' W 122°22'1 2.2
2017-May-16 20:00N 37°54' W 122°23'0 0.0
2017-May-16 19:30N 37°54' W 122°23'0 0.0
2017-May-16 19:00N 37°54' W 122°23'0 0.0
2017-May-16 18:30N 37°54' W 122°23'0 0.0
2017-May-16 18:00N 37°54' W 122°23'0 0.0
2017-May-16 17:30N 37°54' W 122°23'0 0.0
2017-May-16 17:00N 37°54' W 122°23'0 0.0
2017-May-16 16:29N 37°54' W 122°23'0 0.0
2017-May-16 16:00N 37°54' W 122°23'0 0.0
2017-May-16 15:30N 37°54' W 122°23'0 0.0
2017-May-16 15:00N 37°54' W 122°23'0 0.0
2017-May-16 14:30N 37°54' W 122°23'1 1.1
2017-May-16 13:30N 37°54' W 122°22'1 1.7
2017-May-16 13:00N 37°54' W 122°23'2 3.8
2017-May-16 12:30N 37°54' W 122°25'4 8.1
2017-May-16 12:00N 37°51' W 122°23'4 7.3
2017-May-16 11:30N 37°49' W 122°19'0 0.0
2017-May-16 11:00N 37°49' W 122°19'0 0.0
2017-May-16 10:30N 37°49' W 122°19'0 0.0
2017-May-16 10:00N 37°49' W 122°19'0 0.0
2017-May-16 09:30N 37°49' W 122°19'0 0.0
2017-May-16 09:01N 37°49' W 122°19'0 0.0
2017-May-16 08:30N 37°49' W 122°19'0 0.0
2017-May-16 08:00N 37°49' W 122°19'0 0.0
2017-May-16 07:30N 37°49' W 122°19'0 0.0
2017-May-16 07:01N 37°49' W 122°19'0 0.0
2017-May-16 06:30N 37°49' W 122°19'0 0.0
2017-May-16 06:00N 37°49' W 122°19'0 0.0
2017-May-16 05:30N 37°49' W 122°19'0 0.0
2017-May-16 05:01N 37°49' W 122°19'0 0.0
2017-May-16 04:30N 37°49' W 122°19'0 0.0
2017-May-16 04:00N 37°49' W 122°19'0 0.0
2017-May-16 03:30N 37°49' W 122°19'0 0.0
2017-May-16 03:00N 37°49' W 122°19'0 0.0
2017-May-16 02:30N 37°49' W 122°19'0 0.0
2017-May-16 02:00N 37°49' W 122°19'1 1.7
2017-May-16 01:30N 37°49' W 122°20'1 1.8
2017-May-16 01:00N 37°48' W 122°21'1 2.6
2017-May-16 00:30N 37°48' W 122°19'1 2.4
2017-May-16 00:01N 37°49' W 122°20'0 0.4
2017-May-15 23:30N 37°49' W 122°20'0 0.1
2017-May-15 23:00N 37°49' W 122°20'0 0.2
2017-May-15 22:30N 37°49' W 122°20'1 2.0
2017-May-15 22:00N 37°49' W 122°19'0 0.0
2017-May-15 21:30N 37°49' W 122°19'0 0.0
2017-May-15 21:00N 37°49' W 122°19'1 2.0
2017-May-15 20:30N 37°49' W 122°20'2 3.5
2017-May-15 20:00N 37°48' W 122°18'0 0.9
2017-May-15 19:30N 37°48' W 122°17'1 3.0
2017-May-15 19:00N 37°48' W 122°19'2 4.7
2017-May-15 18:30N 37°48' W 122°22'3 5.9
2017-May-15 18:00N 37°49' W 122°19'0 0.0
2017-May-15 17:30N 37°49' W 122°19'0 0.0
2017-May-15 17:00N 37°49' W 122°19'0 0.0
2017-May-15 16:30N 37°49' W 122°19'0 0.0
2017-May-15 16:00N 37°49' W 122°19'1 2.5
2017-May-15 15:30N 37°49' W 122°20'0 0.0
2017-May-15 15:00N 37°49' W 122°20'3 3.1
2017-May-15 14:00N 37°48' W 122°24'1 2.9
2017-May-15 13:30N 37°49' W 122°26'3 7.0
2017-May-15 13:00N 37°48' W 122°21'1 2.0
2017-May-15 12:31N 37°49' W 122°20'0 0.0
2017-May-15 12:00N 37°49' W 122°20'0 0.0
2017-May-15 11:30N 37°49' W 122°20'0 0.0
2017-May-15 11:00N 37°49' W 122°20'0 0.0
2017-May-15 10:31N 37°49' W 122°20'0 0.0
2017-May-15 10:01N 37°49' W 122°20'0 0.0
2017-May-15 09:30N 37°49' W 122°20'0 0.0
2017-May-15 09:00N 37°49' W 122°20'0 0.0
2017-May-15 08:31N 37°49' W 122°20'0 0.0
2017-May-15 08:00N 37°49' W 122°20'0 0.0
2017-May-15 07:30N 37°49' W 122°20'  

Dump ship's entire track history